sensor_id;sensor_type;location;lat;lon;timestamp;P1;durP1;ratioP1;P2;durP2;ratioP2
13832;SDS011;6987;19.472;-99.276;2023-04-06T00:00:41;2.30;;;2.20;;
13832;SDS011;6987;19.472;-99.276;2023-04-06T00:03:10;2.78;;;2.40;;
13832;SDS011;6987;19.472;-99.276;2023-04-06T00:05:40;5.93;;;3.83;;
13832;SDS011;6987;19.472;-99.276;2023-04-06T00:08:09;10.68;;;7.32;;
13832;SDS011;6987;19.472;-99.276;2023-04-06T00:10:38;14.27;;;11.30;;
13832;SDS011;6987;19.472;-99.276;2023-04-06T00:13:07;18.80;;;14.00;;
13832;SDS011;6987;19.472;-99.276;2023-04-06T00:15:38;27.30;;;15.32;;
13832;SDS011;6987;19.472;-99.276;2023-04-06T00:18:07;20.25;;;17.65;;
13832;SDS011;6987;19.472;-99.276;2023-04-06T00:20:36;23.70;;;18.17;;
13832;SDS011;6987;19.472;-99.276;2023-04-06T00:23:05;29.80;;;22.17;;
13832;SDS011;6987;19.472;-99.276;2023-04-06T00:25:34;28.73;;;23.05;;
13832;SDS011;6987;19.472;-99.276;2023-04-06T00:28:04;29.95;;;22.73;;
13832;SDS011;6987;19.472;-99.276;2023-04-06T00:30:33;28.55;;;21.27;;
13832;SDS011;6987;19.472;-99.276;2023-04-06T00:33:04;31.05;;;22.05;;
13832;SDS011;6987;19.472;-99.276;2023-04-06T00:35:33;30.27;;;20.60;;
13832;SDS011;6987;19.472;-99.276;2023-04-06T00:38:02;30.08;;;21.52;;
13832;SDS011;6987;19.472;-99.276;2023-04-06T00:40:31;26.00;;;19.73;;
13832;SDS011;6987;19.472;-99.276;2023-04-06T00:43:01;28.50;;;19.70;;
13832;SDS011;6987;19.472;-99.276;2023-04-06T00:45:29;23.40;;;19.33;;
13832;SDS011;6987;19.472;-99.276;2023-04-06T00:47:59;28.73;;;20.08;;
13832;SDS011;6987;19.472;-99.276;2023-04-06T00:50:30;24.00;;;18.50;;
13832;SDS011;6987;19.472;-99.276;2023-04-06T00:52:59;25.58;;;17.83;;
13832;SDS011;6987;19.472;-99.276;2023-04-06T00:55:28;21.63;;;18.25;;
13832;SDS011;6987;19.472;-99.276;2023-04-06T00:57:58;24.40;;;16.05;;
13832;SDS011;6987;19.472;-99.276;2023-04-06T01:00:27;21.10;;;16.05;;
13832;SDS011;6987;19.472;-99.276;2023-04-06T01:02:56;16.67;;;14.73;;
13832;SDS011;6987;19.472;-99.276;2023-04-06T01:05:26;25.38;;;16.13;;
13832;SDS011;6987;19.472;-99.276;2023-04-06T01:07:57;21.02;;;15.73;;
13832;SDS011;6987;19.472;-99.276;2023-04-06T01:10:27;22.52;;;16.77;;
13832;SDS011;6987;19.472;-99.276;2023-04-06T01:12:56;23.20;;;14.70;;
13832;SDS011;6987;19.472;-99.276;2023-04-06T01:15:25;20.48;;;14.05;;
13832;SDS011;6987;19.472;-99.276;2023-04-06T01:17:55;21.77;;;13.60;;
13832;SDS011;6987;19.472;-99.276;2023-04-06T01:20:24;24.52;;;16.50;;
13832;SDS011;6987;19.472;-99.276;2023-04-06T01:22:55;24.35;;;14.65;;
13832;SDS011;6987;19.472;-99.276;2023-04-06T01:25:24;18.00;;;13.50;;
13832;SDS011;6987;19.472;-99.276;2023-04-06T01:27:54;15.55;;;12.73;;
13832;SDS011;6987;19.472;-99.276;2023-04-06T01:30:23;16.17;;;12.68;;
13832;SDS011;6987;19.472;-99.276;2023-04-06T01:32:52;16.95;;;13.05;;
13832;SDS011;6987;19.472;-99.276;2023-04-06T01:35:21;20.25;;;11.75;;
13832;SDS011;6987;19.472;-99.276;2023-04-06T01:37:51;15.25;;;12.07;;
13832;SDS011;6987;19.472;-99.276;2023-04-06T01:40:21;16.88;;;12.10;;
13832;SDS011;6987;19.472;-99.276;2023-04-06T01:42:51;13.57;;;11.10;;
13832;SDS011;6987;19.472;-99.276;2023-04-06T01:45:20;12.80;;;11.13;;
13832;SDS011;6987;19.472;-99.276;2023-04-06T01:47:50;15.88;;;11.23;;
13832;SDS011;6987;19.472;-99.276;2023-04-06T01:50:19;14.88;;;11.35;;
13832;SDS011;6987;19.472;-99.276;2023-04-06T01:52:48;12.52;;;10.13;;
13832;SDS011;6987;19.472;-99.276;2023-04-06T01:55:17;15.07;;;11.40;;
13832;SDS011;6987;19.472;-99.276;2023-04-06T01:57:48;19.17;;;13.05;;
13832;SDS011;6987;19.472;-99.276;2023-04-06T02:00:17;17.60;;;11.13;;
13832;SDS011;6987;19.472;-99.276;2023-04-06T02:02:46;20.65;;;12.23;;
13832;SDS011;6987;19.472;-99.276;2023-04-06T02:05:16;15.20;;;10.02;;
13832;SDS011;6987;19.472;-99.276;2023-04-06T02:07:45;12.75;;;10.68;;
13832;SDS011;6987;19.472;-99.276;2023-04-06T02:10:14;15.60;;;10.52;;
13832;SDS011;6987;19.472;-99.276;2023-04-06T02:12:43;13.80;;;10.95;;
13832;SDS011;6987;19.472;-99.276;2023-04-06T02:15:14;12.65;;;9.45;;
13832;SDS011;6987;19.472;-99.276;2023-04-06T02:17:44;9.48;;;8.52;;
13832;SDS011;6987;19.472;-99.276;2023-04-06T02:20:13;20.60;;;12.20;;
13832;SDS011;6987;19.472;-99.276;2023-04-06T02:22:42;24.17;;;10.75;;
13832;SDS011;6987;19.472;-99.276;2023-04-06T02:25:11;15.18;;;10.55;;
13832;SDS011;6987;19.472;-99.276;2023-04-06T02:27:41;10.95;;;9.27;;
13832;SDS011;6987;19.472;-99.276;2023-04-06T02:30:11;17.88;;;11.15;;
13832;SDS011;6987;19.472;-99.276;2023-04-06T02:32:42;19.05;;;10.98;;
13832;SDS011;6987;19.472;-99.276;2023-04-06T02:35:12;21.95;;;10.82;;
13832;SDS011;6987;19.472;-99.276;2023-04-06T02:37:41;18.90;;;10.40;;
13832;SDS011;6987;19.472;-99.276;2023-04-06T02:40:10;26.77;;;11.57;;
13832;SDS011;6987;19.472;-99.276;2023-04-06T02:42:39;14.95;;;8.68;;
13832;SDS011;6987;19.472;-99.276;2023-04-06T02:45:09;12.75;;;9.23;;
13832;SDS011;6987;19.472;-99.276;2023-04-06T02:47:37;10.65;;;7.55;;
13832;SDS011;6987;19.472;-99.276;2023-04-06T02:50:09;8.63;;;7.63;;
13832;SDS011;6987;19.472;-99.276;2023-04-06T02:52:38;14.57;;;7.97;;
13832;SDS011;6987;19.472;-99.276;2023-04-06T02:55:08;12.43;;;7.50;;
13832;SDS011;6987;19.472;-99.276;2023-04-06T02:57:37;8.80;;;7.35;;
13832;SDS011;6987;19.472;-99.276;2023-04-06T03:00:07;9.60;;;7.57;;
13832;SDS011;6987;19.472;-99.276;2023-04-06T03:02:36;12.18;;;7.10;;
13832;SDS011;6987;19.472;-99.276;2023-04-06T03:05:05;9.95;;;6.72;;
13832;SDS011;6987;19.472;-99.276;2023-04-06T03:07:36;9.63;;;6.72;;
13832;SDS011;6987;19.472;-99.276;2023-04-06T03:10:06;8.95;;;7.07;;
13832;SDS011;6987;19.472;-99.276;2023-04-06T03:12:36;9.05;;;7.30;;
13832;SDS011;6987;19.472;-99.276;2023-04-06T03:15:07;10.00;;;7.82;;
13832;SDS011;6987;19.472;-99.276;2023-04-06T03:17:36;9.13;;;7.53;;
13832;SDS011;6987;19.472;-99.276;2023-04-06T03:20:06;7.50;;;6.80;;
13832;SDS011;6987;19.472;-99.276;2023-04-06T03:22:36;9.55;;;7.32;;
13832;SDS011;6987;19.472;-99.276;2023-04-06T03:25:06;7.95;;;6.90;;
13832;SDS011;6987;19.472;-99.276;2023-04-06T03:27:35;8.13;;;7.05;;
13832;SDS011;6987;19.472;-99.276;2023-04-06T03:30:05;9.15;;;5.97;;
13832;SDS011;6987;19.472;-99.276;2023-04-06T03:32:35;8.00;;;7.20;;
13832;SDS011;6987;19.472;-99.276;2023-04-06T03:35:04;12.90;;;6.88;;
13832;SDS011;6987;19.472;-99.276;2023-04-06T03:37:34;8.13;;;7.35;;
13832;SDS011;6987;19.472;-99.276;2023-04-06T03:40:06;13.45;;;8.65;;
13832;SDS011;6987;19.472;-99.276;2023-04-06T03:42:35;13.00;;;7.85;;
13832;SDS011;6987;19.472;-99.276;2023-04-06T03:45:05;8.48;;;7.43;;
13832;SDS011;6987;19.472;-99.276;2023-04-06T03:47:35;14.90;;;7.80;;
13832;SDS011;6987;19.472;-99.276;2023-04-06T03:50:05;10.43;;;7.55;;
13832;SDS011;6987;19.472;-99.276;2023-04-06T03:52:34;15.02;;;8.10;;
13832;SDS011;6987;19.472;-99.276;2023-04-06T03:55:06;10.80;;;8.43;;
13832;SDS011;6987;19.472;-99.276;2023-04-06T03:57:36;11.27;;;7.53;;
13832;SDS011;6987;19.472;-99.276;2023-04-06T04:00:05;12.63;;;8.30;;
13832;SDS011;6987;19.472;-99.276;2023-04-06T04:02:34;12.38;;;8.07;;
13832;SDS011;6987;19.472;-99.276;2023-04-06T04:05:04;12.55;;;8.40;;
13832;SDS011;6987;19.472;-99.276;2023-04-06T04:07:33;9.00;;;7.72;;
13832;SDS011;6987;19.472;-99.276;2023-04-06T04:10:03;12.32;;;7.75;;
13832;SDS011;6987;19.472;-99.276;2023-04-06T04:12:34;10.05;;;8.32;;
13832;SDS011;6987;19.472;-99.276;2023-04-06T04:15:03;14.85;;;9.73;;
13832;SDS011;6987;19.472;-99.276;2023-04-06T04:17:32;11.32;;;8.07;;
13832;SDS011;6987;19.472;-99.276;2023-04-06T04:20:01;10.07;;;8.07;;
13832;SDS011;6987;19.472;-99.276;2023-04-06T04:22:30;9.23;;;8.23;;
13832;SDS011;6987;19.472;-99.276;2023-04-06T04:24:59;12.05;;;9.40;;
13832;SDS011;6987;19.472;-99.276;2023-04-06T04:27:29;10.35;;;9.23;;
13832;SDS011;6987;19.472;-99.276;2023-04-06T04:30:00;10.70;;;8.45;;
13832;SDS011;6987;19.472;-99.276;2023-04-06T04:32:28;11.65;;;8.85;;
13832;SDS011;6987;19.472;-99.276;2023-04-06T04:34:58;10.80;;;8.90;;
13832;SDS011;6987;19.472;-99.276;2023-04-06T04:37:27;10.45;;;9.27;;
13832;SDS011;6987;19.472;-99.276;2023-04-06T04:39:56;10.73;;;8.90;;
13832;SDS011;6987;19.472;-99.276;2023-04-06T04:42:25;16.00;;;9.20;;
13832;SDS011;6987;19.472;-99.276;2023-04-06T04:44:54;10.63;;;8.55;;
13832;SDS011;6987;19.472;-99.276;2023-04-06T04:47:26;13.25;;;9.07;;
13832;SDS011;6987;19.472;-99.276;2023-04-06T04:49:55;12.07;;;8.93;;
13832;SDS011;6987;19.472;-99.276;2023-04-06T04:52:24;16.05;;;9.93;;
13832;SDS011;6987;19.472;-99.276;2023-04-06T04:54:53;17.60;;;9.55;;
13832;SDS011;6987;19.472;-99.276;2023-04-06T04:57:22;13.80;;;9.20;;
13832;SDS011;6987;19.472;-99.276;2023-04-06T04:59:51;11.27;;;9.02;;
13832;SDS011;6987;19.472;-99.276;2023-04-06T05:02:20;8.90;;;8.00;;
13832;SDS011;6987;19.472;-99.276;2023-04-06T05:04:51;12.52;;;9.15;;
13832;SDS011;6987;19.472;-99.276;2023-04-06T05:07:20;12.63;;;9.50;;
13832;SDS011;6987;19.472;-99.276;2023-04-06T05:09:49;11.82;;;8.75;;
13832;SDS011;6987;19.472;-99.276;2023-04-06T05:12:18;10.40;;;8.32;;
13832;SDS011;6987;19.472;-99.276;2023-04-06T05:14:48;11.40;;;8.80;;
13832;SDS011;6987;19.472;-99.276;2023-04-06T05:17:17;10.68;;;8.93;;
13832;SDS011;6987;19.472;-99.276;2023-04-06T05:19:46;16.88;;;10.40;;
13832;SDS011;6987;19.472;-99.276;2023-04-06T05:22:17;13.93;;;9.90;;
13832;SDS011;6987;19.472;-99.276;2023-04-06T05:24:46;14.07;;;9.40;;
13832;SDS011;6987;19.472;-99.276;2023-04-06T05:27:16;10.95;;;9.13;;
13832;SDS011;6987;19.472;-99.276;2023-04-06T05:29:45;9.38;;;8.40;;
13832;SDS011;6987;19.472;-99.276;2023-04-06T05:32:14;12.90;;;9.20;;
13832;SDS011;6987;19.472;-99.276;2023-04-06T05:34:48;17.80;;;9.73;;
13832;SDS011;6987;19.472;-99.276;2023-04-06T05:37:19;16.02;;;9.02;;
13832;SDS011;6987;19.472;-99.276;2023-04-06T05:39:48;11.05;;;9.73;;
13832;SDS011;6987;19.472;-99.276;2023-04-06T05:42:17;10.77;;;9.23;;
13832;SDS011;6987;19.472;-99.276;2023-04-06T05:44:46;12.00;;;9.13;;
13832;SDS011;6987;19.472;-99.276;2023-04-06T05:47:16;14.60;;;9.52;;
13832;SDS011;6987;19.472;-99.276;2023-04-06T05:49:45;10.85;;;9.57;;
13832;SDS011;6987;19.472;-99.276;2023-04-06T05:52:14;9.88;;;8.93;;
13832;SDS011;6987;19.472;-99.276;2023-04-06T05:54:45;11.65;;;9.25;;
13832;SDS011;6987;19.472;-99.276;2023-04-06T05:57:15;13.23;;;9.93;;
13832;SDS011;6987;19.472;-99.276;2023-04-06T05:59:44;15.52;;;10.20;;
13832;SDS011;6987;19.472;-99.276;2023-04-06T06:02:13;11.38;;;8.93;;
13832;SDS011;6987;19.472;-99.276;2023-04-06T06:04:42;11.13;;;9.82;;
13832;SDS011;6987;19.472;-99.276;2023-04-06T06:07:11;11.77;;;10.45;;
13832;SDS011;6987;19.472;-99.276;2023-04-06T06:09:41;18.02;;;12.80;;
13832;SDS011;6987;19.472;-99.276;2023-04-06T06:12:11;17.35;;;12.90;;
13832;SDS011;6987;19.472;-99.276;2023-04-06T06:14:41;20.05;;;13.32;;
13832;SDS011;6987;19.472;-99.276;2023-04-06T06:17:11;28.00;;;15.93;;
13832;SDS011;6987;19.472;-99.276;2023-04-06T06:19:41;22.73;;;15.63;;
13832;SDS011;6987;19.472;-99.276;2023-04-06T06:22:10;19.73;;;14.52;;
13832;SDS011;6987;19.472;-99.276;2023-04-06T06:24:39;19.60;;;14.32;;
13832;SDS011;6987;19.472;-99.276;2023-04-06T06:27:08;27.75;;;15.20;;
13832;SDS011;6987;19.472;-99.276;2023-04-06T06:29:40;22.98;;;15.98;;
13832;SDS011;6987;19.472;-99.276;2023-04-06T06:32:09;28.13;;;16.33;;
13832;SDS011;6987;19.472;-99.276;2023-04-06T06:34:39;25.67;;;16.05;;
13832;SDS011;6987;19.472;-99.276;2023-04-06T06:37:08;28.50;;;17.08;;
13832;SDS011;6987;19.472;-99.276;2023-04-06T06:39:37;22.30;;;16.55;;
13832;SDS011;6987;19.472;-99.276;2023-04-06T06:42:07;28.10;;;15.82;;
13832;SDS011;6987;19.472;-99.276;2023-04-06T06:44:36;26.85;;;16.27;;
13832;SDS011;6987;19.472;-99.276;2023-04-06T06:47:07;23.70;;;15.63;;
13832;SDS011;6987;19.472;-99.276;2023-04-06T06:49:37;22.52;;;16.42;;
13832;SDS011;6987;19.472;-99.276;2023-04-06T06:52:06;22.40;;;16.38;;
13832;SDS011;6987;19.472;-99.276;2023-04-06T06:54:34;28.75;;;17.98;;
13832;SDS011;6987;19.472;-99.276;2023-04-06T06:57:04;26.63;;;16.92;;
13832;SDS011;6987;19.472;-99.276;2023-04-06T06:59:33;30.35;;;18.17;;
13832;SDS011;6987;19.472;-99.276;2023-04-06T07:02:02;26.92;;;17.10;;
13832;SDS011;6987;19.472;-99.276;2023-04-06T07:04:33;22.85;;;16.02;;
13832;SDS011;6987;19.472;-99.276;2023-04-06T07:07:02;23.27;;;14.98;;
13832;SDS011;6987;19.472;-99.276;2023-04-06T07:09:31;22.42;;;15.40;;
13832;SDS011;6987;19.472;-99.276;2023-04-06T07:12:01;23.38;;;15.45;;
13832;SDS011;6987;19.472;-99.276;2023-04-06T07:14:29;19.00;;;14.30;;
13832;SDS011;6987;19.472;-99.276;2023-04-06T07:16:58;21.48;;;14.85;;
13832;SDS011;6987;19.472;-99.276;2023-04-06T07:19:27;22.45;;;12.82;;
13832;SDS011;6987;19.472;-99.276;2023-04-06T07:21:59;16.40;;;13.10;;
13832;SDS011;6987;19.472;-99.276;2023-04-06T07:24:29;18.85;;;13.07;;
13832;SDS011;6987;19.472;-99.276;2023-04-06T07:26:58;15.13;;;12.55;;
13832;SDS011;6987;19.472;-99.276;2023-04-06T07:29:27;16.80;;;11.75;;
13832;SDS011;6987;19.472;-99.276;2023-04-06T07:31:56;17.60;;;13.25;;
13832;SDS011;6987;19.472;-99.276;2023-04-06T07:34:25;15.48;;;12.40;;
13832;SDS011;6987;19.472;-99.276;2023-04-06T07:36:55;15.63;;;12.75;;
13832;SDS011;6987;19.472;-99.276;2023-04-06T07:39:26;20.80;;;13.77;;
13832;SDS011;6987;19.472;-99.276;2023-04-06T07:41:56;19.50;;;12.35;;
13832;SDS011;6987;19.472;-99.276;2023-04-06T07:44:25;21.52;;;12.07;;
13832;SDS011;6987;19.472;-99.276;2023-04-06T07:46:54;15.82;;;11.40;;
13832;SDS011;6987;19.472;-99.276;2023-04-06T07:49:23;16.45;;;11.82;;
13832;SDS011;6987;19.472;-99.276;2023-04-06T07:51:52;17.42;;;11.88;;
13832;SDS011;6987;19.472;-99.276;2023-04-06T07:54:21;15.23;;;11.13;;
13832;SDS011;6987;19.472;-99.276;2023-04-06T07:56:52;22.10;;;12.32;;
13832;SDS011;6987;19.472;-99.276;2023-04-06T07:59:21;15.20;;;12.05;;
13832;SDS011;6987;19.472;-99.276;2023-04-06T08:01:50;17.55;;;12.07;;
13832;SDS011;6987;19.472;-99.276;2023-04-06T08:04:19;13.30;;;11.98;;
13832;SDS011;6987;19.472;-99.276;2023-04-06T08:06:48;18.90;;;12.43;;
13832;SDS011;6987;19.472;-99.276;2023-04-06T08:09:17;15.13;;;12.68;;
13832;SDS011;6987;19.472;-99.276;2023-04-06T08:11:46;13.80;;;11.80;;
13832;SDS011;6987;19.472;-99.276;2023-04-06T08:14:17;13.88;;;10.82;;
13832;SDS011;6987;19.472;-99.276;2023-04-06T08:16:45;16.88;;;10.45;;
13832;SDS011;6987;19.472;-99.276;2023-04-06T08:19:14;12.40;;;10.95;;
13832;SDS011;6987;19.472;-99.276;2023-04-06T08:21:44;11.80;;;10.52;;
13832;SDS011;6987;19.472;-99.276;2023-04-06T08:24:13;14.55;;;10.43;;
13832;SDS011;6987;19.472;-99.276;2023-04-06T08:26:42;15.30;;;10.95;;
13832;SDS011;6987;19.472;-99.276;2023-04-06T08:29:11;12.13;;;10.10;;
13832;SDS011;6987;19.472;-99.276;2023-04-06T08:31:42;12.18;;;10.02;;
13832;SDS011;6987;19.472;-99.276;2023-04-06T08:34:11;12.00;;;10.82;;
13832;SDS011;6987;19.472;-99.276;2023-04-06T08:36:40;13.40;;;10.43;;
13832;SDS011;6987;19.472;-99.276;2023-04-06T08:39:09;11.85;;;9.73;;
13832;SDS011;6987;19.472;-99.276;2023-04-06T08:41:38;11.50;;;10.00;;
13832;SDS011;6987;19.472;-99.276;2023-04-06T08:44:09;13.15;;;10.60;;
13832;SDS011;6987;19.472;-99.276;2023-04-06T08:46:39;12.93;;;10.65;;
13832;SDS011;6987;19.472;-99.276;2023-04-06T08:49:10;15.35;;;11.77;;
13832;SDS011;6987;19.472;-99.276;2023-04-06T08:51:39;13.30;;;11.07;;
13832;SDS011;6987;19.472;-99.276;2023-04-06T08:54:09;15.13;;;10.65;;
13832;SDS011;6987;19.472;-99.276;2023-04-06T08:56:38;12.50;;;11.30;;
13832;SDS011;6987;19.472;-99.276;2023-04-06T08:59:07;17.42;;;11.52;;
13832;SDS011;6987;19.472;-99.276;2023-04-06T09:01:37;12.93;;;10.63;;
13832;SDS011;6987;19.472;-99.276;2023-04-06T09:04:07;12.43;;;11.20;;
13832;SDS011;6987;19.472;-99.276;2023-04-06T09:06:39;12.93;;;10.30;;
13832;SDS011;6987;19.472;-99.276;2023-04-06T09:09:08;13.73;;;11.10;;
13832;SDS011;6987;19.472;-99.276;2023-04-06T09:11:44;12.85;;;11.73;;
13832;SDS011;6987;19.472;-99.276;2023-04-06T09:14:13;16.58;;;11.05;;
13832;SDS011;6987;19.472;-99.276;2023-04-06T09:16:43;13.25;;;11.20;;
13832;SDS011;6987;19.472;-99.276;2023-04-06T09:19:13;12.15;;;10.88;;
13832;SDS011;6987;19.472;-99.276;2023-04-06T09:21:44;15.32;;;11.50;;
13832;SDS011;6987;19.472;-99.276;2023-04-06T09:24:12;11.45;;;10.18;;
13832;SDS011;6987;19.472;-99.276;2023-04-06T09:26:46;14.05;;;10.38;;
13832;SDS011;6987;19.472;-99.276;2023-04-06T09:29:22;12.57;;;11.32;;
13832;SDS011;6987;19.472;-99.276;2023-04-06T09:31:52;16.92;;;11.85;;
13832;SDS011;6987;19.472;-99.276;2023-04-06T09:34:21;12.23;;;10.77;;
13832;SDS011;6987;19.472;-99.276;2023-04-06T09:36:53;12.23;;;11.02;;
13832;SDS011;6987;19.472;-99.276;2023-04-06T09:39:22;13.57;;;11.18;;
13832;SDS011;6987;19.472;-99.276;2023-04-06T09:41:51;11.32;;;10.32;;
13832;SDS011;6987;19.472;-99.276;2023-04-06T09:44:21;14.00;;;10.90;;
13832;SDS011;6987;19.472;-99.276;2023-04-06T09:46:51;16.80;;;10.90;;
13832;SDS011;6987;19.472;-99.276;2023-04-06T09:49:22;13.18;;;10.70;;
13832;SDS011;6987;19.472;-99.276;2023-04-06T09:51:55;14.50;;;10.95;;
13832;SDS011;6987;19.472;-99.276;2023-04-06T09:54:25;15.05;;;12.45;;
13832;SDS011;6987;19.472;-99.276;2023-04-06T09:56:58;14.55;;;12.10;;
13832;SDS011;6987;19.472;-99.276;2023-04-06T09:59:29;13.95;;;10.70;;
13832;SDS011;6987;19.472;-99.276;2023-04-06T10:02:00;16.35;;;11.52;;
13832;SDS011;6987;19.472;-99.276;2023-04-06T10:04:30;15.23;;;11.25;;
13832;SDS011;6987;19.472;-99.276;2023-04-06T10:07:02;12.90;;;10.82;;
13832;SDS011;6987;19.472;-99.276;2023-04-06T10:09:33;13.43;;;10.35;;
13832;SDS011;6987;19.472;-99.276;2023-04-06T10:12:03;16.33;;;11.48;;
13832;SDS011;6987;19.472;-99.276;2023-04-06T10:14:33;18.25;;;10.82;;
13832;SDS011;6987;19.472;-99.276;2023-04-06T10:17:04;12.15;;;10.75;;
13832;SDS011;6987;19.472;-99.276;2023-04-06T10:19:36;13.30;;;11.35;;
13832;SDS011;6987;19.472;-99.276;2023-04-06T10:22:10;14.07;;;11.50;;
13832;SDS011;6987;19.472;-99.276;2023-04-06T10:24:41;12.25;;;10.85;;
13832;SDS011;6987;19.472;-99.276;2023-04-06T10:27:10;12.38;;;11.18;;
13832;SDS011;6987;19.472;-99.276;2023-04-06T10:29:42;13.40;;;10.68;;
13832;SDS011;6987;19.472;-99.276;2023-04-06T10:32:12;13.82;;;10.40;;
13832;SDS011;6987;19.472;-99.276;2023-04-06T10:34:41;15.02;;;12.43;;
13832;SDS011;6987;19.472;-99.276;2023-04-06T10:37:13;13.95;;;11.32;;
13832;SDS011;6987;19.472;-99.276;2023-04-06T10:39:51;11.60;;;10.57;;
13832;SDS011;6987;19.472;-99.276;2023-04-06T10:42:24;13.32;;;11.07;;
13832;SDS011;6987;19.472;-99.276;2023-04-06T10:44:53;13.18;;;11.45;;
13832;SDS011;6987;19.472;-99.276;2023-04-06T10:47:21;14.27;;;11.43;;
13832;SDS011;6987;19.472;-99.276;2023-04-06T10:49:51;15.25;;;10.82;;
13832;SDS011;6987;19.472;-99.276;2023-04-06T10:52:22;12.90;;;11.32;;
13832;SDS011;6987;19.472;-99.276;2023-04-06T10:54:51;11.50;;;10.40;;
13832;SDS011;6987;19.472;-99.276;2023-04-06T10:57:27;13.05;;;11.07;;
13832;SDS011;6987;19.472;-99.276;2023-04-06T10:59:57;14.13;;;12.23;;
13832;SDS011;6987;19.472;-99.276;2023-04-06T11:02:26;16.77;;;11.27;;
13832;SDS011;6987;19.472;-99.276;2023-04-06T11:04:56;11.63;;;10.50;;
13832;SDS011;6987;19.472;-99.276;2023-04-06T11:07:26;13.32;;;11.43;;
13832;SDS011;6987;19.472;-99.276;2023-04-06T11:09:56;11.63;;;10.32;;
13832;SDS011;6987;19.472;-99.276;2023-04-06T11:12:26;13.43;;;12.07;;
13832;SDS011;6987;19.472;-99.276;2023-04-06T11:14:56;13.52;;;11.02;;
13832;SDS011;6987;19.472;-99.276;2023-04-06T11:17:30;15.63;;;11.00;;
13832;SDS011;6987;19.472;-99.276;2023-04-06T11:19:59;15.52;;;11.60;;
13832;SDS011;6987;19.472;-99.276;2023-04-06T11:22:30;14.80;;;11.52;;
13832;SDS011;6987;19.472;-99.276;2023-04-06T11:25:04;12.27;;;11.13;;
13832;SDS011;6987;19.472;-99.276;2023-04-06T11:27:34;13.32;;;11.90;;
13832;SDS011;6987;19.472;-99.276;2023-04-06T11:30:04;14.10;;;11.27;;
13832;SDS011;6987;19.472;-99.276;2023-04-06T11:32:39;15.05;;;12.15;;
13832;SDS011;6987;19.472;-99.276;2023-04-06T11:35:10;12.75;;;11.55;;
13832;SDS011;6987;19.472;-99.276;2023-04-06T11:37:44;13.48;;;12.13;;
13832;SDS011;6987;19.472;-99.276;2023-04-06T11:40:13;14.43;;;11.80;;
13832;SDS011;6987;19.472;-99.276;2023-04-06T11:42:42;14.35;;;12.48;;
13832;SDS011;6987;19.472;-99.276;2023-04-06T11:45:20;13.07;;;11.80;;
13832;SDS011;6987;19.472;-99.276;2023-04-06T11:47:55;13.75;;;11.85;;
13832;SDS011;6987;19.472;-99.276;2023-04-06T11:50:31;13.93;;;12.32;;
13832;SDS011;6987;19.472;-99.276;2023-04-06T11:53:02;12.60;;;11.30;;
13832;SDS011;6987;19.472;-99.276;2023-04-06T11:55:36;15.55;;;12.77;;
13832;SDS011;6987;19.472;-99.276;2023-04-06T11:58:06;15.32;;;13.02;;
13832;SDS011;6987;19.472;-99.276;2023-04-06T12:00:35;14.93;;;12.73;;
13832;SDS011;6987;19.472;-99.276;2023-04-06T12:03:04;12.90;;;11.73;;
13832;SDS011;6987;19.472;-99.276;2023-04-06T12:05:33;12.20;;;10.85;;
13832;SDS011;6987;19.472;-99.276;2023-04-06T12:08:04;15.07;;;12.38;;
13832;SDS011;6987;19.472;-99.276;2023-04-06T12:10:33;15.43;;;12.18;;
13832;SDS011;6987;19.472;-99.276;2023-04-06T12:13:03;19.15;;;13.65;;
13832;SDS011;6987;19.472;-99.276;2023-04-06T12:15:32;16.83;;;13.77;;
13832;SDS011;6987;19.472;-99.276;2023-04-06T12:18:01;14.05;;;12.60;;
13832;SDS011;6987;19.472;-99.276;2023-04-06T12:20:30;16.50;;;14.00;;
13832;SDS011;6987;19.472;-99.276;2023-04-06T12:22:59;15.57;;;13.88;;
13832;SDS011;6987;19.472;-99.276;2023-04-06T12:25:30;14.57;;;13.07;;
13832;SDS011;6987;19.472;-99.276;2023-04-06T12:27:59;20.02;;;14.25;;
13832;SDS011;6987;19.472;-99.276;2023-04-06T12:30:28;16.77;;;13.90;;
13832;SDS011;6987;19.472;-99.276;2023-04-06T12:32:57;18.88;;;13.70;;
13832;SDS011;6987;19.472;-99.276;2023-04-06T12:35:27;17.45;;;13.80;;
13832;SDS011;6987;19.472;-99.276;2023-04-06T12:37:56;13.90;;;12.40;;
13832;SDS011;6987;19.472;-99.276;2023-04-06T12:40:25;17.35;;;13.82;;
13832;SDS011;6987;19.472;-99.276;2023-04-06T12:42:55;17.88;;;13.68;;
13832;SDS011;6987;19.472;-99.276;2023-04-06T12:45:24;20.23;;;14.30;;
13832;SDS011;6987;19.472;-99.276;2023-04-06T12:47:53;18.95;;;14.60;;
13832;SDS011;6987;19.472;-99.276;2023-04-06T12:50:22;20.42;;;14.57;;
13832;SDS011;6987;19.472;-99.276;2023-04-06T12:52:52;16.10;;;14.38;;
13832;SDS011;6987;19.472;-99.276;2023-04-06T12:55:21;16.95;;;14.57;;
13832;SDS011;6987;19.472;-99.276;2023-04-06T12:57:49;20.27;;;14.73;;
13832;SDS011;6987;19.472;-99.276;2023-04-06T13:00:21;15.63;;;13.68;;
13832;SDS011;6987;19.472;-99.276;2023-04-06T13:02:50;17.30;;;14.73;;
13832;SDS011;6987;19.472;-99.276;2023-04-06T13:05:19;20.70;;;15.02;;
13832;SDS011;6987;19.472;-99.276;2023-04-06T13:07:48;23.25;;;16.02;;
13832;SDS011;6987;19.472;-99.276;2023-04-06T13:10:17;24.67;;;16.58;;
13832;SDS011;6987;19.472;-99.276;2023-04-06T13:12:46;22.63;;;15.52;;
13832;SDS011;6987;19.472;-99.276;2023-04-06T13:15:15;18.85;;;15.52;;
13832;SDS011;6987;19.472;-99.276;2023-04-06T13:17:45;20.42;;;17.30;;
13832;SDS011;6987;19.472;-99.276;2023-04-06T13:20:14;22.58;;;16.10;;
13832;SDS011;6987;19.472;-99.276;2023-04-06T13:22:43;19.27;;;15.60;;
13832;SDS011;6987;19.472;-99.276;2023-04-06T13:25:12;18.73;;;15.43;;
13832;SDS011;6987;19.472;-99.276;2023-04-06T13:27:41;20.05;;;15.60;;
13832;SDS011;6987;19.472;-99.276;2023-04-06T13:30:12;21.02;;;15.27;;
13832;SDS011;6987;19.472;-99.276;2023-04-06T13:32:41;18.55;;;15.38;;
13832;SDS011;6987;19.472;-99.276;2023-04-06T13:35:12;22.77;;;16.17;;
13832;SDS011;6987;19.472;-99.276;2023-04-06T13:37:42;17.75;;;14.98;;
13832;SDS011;6987;19.472;-99.276;2023-04-06T13:40:11;22.25;;;15.90;;
13832;SDS011;6987;19.472;-99.276;2023-04-06T13:42:41;20.80;;;16.13;;
13832;SDS011;6987;19.472;-99.276;2023-04-06T13:45:11;23.60;;;16.52;;
13832;SDS011;6987;19.472;-99.276;2023-04-06T13:47:40;16.73;;;14.75;;
13832;SDS011;6987;19.472;-99.276;2023-04-06T13:50:09;16.38;;;14.73;;
13832;SDS011;6987;19.472;-99.276;2023-04-06T13:52:40;18.27;;;15.82;;
13832;SDS011;6987;19.472;-99.276;2023-04-06T13:55:09;31.00;;;17.15;;
13832;SDS011;6987;19.472;-99.276;2023-04-06T13:57:38;25.15;;;18.58;;
13832;SDS011;6987;19.472;-99.276;2023-04-06T14:00:08;19.90;;;16.05;;
13832;SDS011;6987;19.472;-99.276;2023-04-06T14:02:38;20.25;;;17.70;;
13832;SDS011;6987;19.472;-99.276;2023-04-06T14:05:07;33.90;;;18.77;;
13832;SDS011;6987;19.472;-99.276;2023-04-06T14:07:37;21.17;;;18.00;;
13832;SDS011;6987;19.472;-99.276;2023-04-06T14:10:08;25.95;;;18.95;;
13832;SDS011;6987;19.472;-99.276;2023-04-06T14:12:40;28.40;;;19.20;;
13832;SDS011;6987;19.472;-99.276;2023-04-06T14:15:10;28.15;;;20.15;;
13832;SDS011;6987;19.472;-99.276;2023-04-06T14:17:39;27.30;;;20.00;;
13832;SDS011;6987;19.472;-99.276;2023-04-06T14:20:08;26.92;;;23.10;;
13832;SDS011;6987;19.472;-99.276;2023-04-06T14:22:40;30.90;;;24.15;;
13832;SDS011;6987;19.472;-99.276;2023-04-06T14:25:11;30.60;;;21.95;;
13832;SDS011;6987;19.472;-99.276;2023-04-06T14:27:41;30.27;;;23.50;;